Time;durP1;ratioP1;P1;durP2;ratioP2;P2;SDS_P1;SDS_P2;PMS_P1;PMS_P2;Temp;Humidity;BMP_temperature;BMP_pressure;BME280_temperature;BME280_humidity;BME280_pressure;Samples;Min_cycle;Max_cycle;Signal;HPM_P1;HPM_P2
2024/02/12 00:02:49;;;;;;;31.40;11.90;;;;;;;12.63;100.00;96824.68;67779;1279;1015935;-68
2024/02/12 00:05:51;;;;;;;27.50;10.80;;;;;;;12.67;100.00;96827.77;67768;1279;1019588;-69
2024/02/12 00:08:54;;;;;;;31.10;12.80;;;;;;;12.74;100.00;96829.83;67753;1279;1016249;-65
2024/02/12 00:11:56;;;;;;;30.50;11.90;;;;;;;12.73;100.00;96829.79;67723;1279;1016317;-60
2024/02/12 00:15:00;;;;;;;28.30;10.60;;;;;;;12.86;100.00;96832.86;67802;1279;1016448;-68
2024/02/12 00:18:02;;;;;;;27.80;12.30;;;;;;;12.86;100.00;96830.38;67724;1279;1016862;-66
2024/02/12 00:21:07;;;;;;;27.50;11.80;;;;;;;12.90;100.00;96836.65;67733;1279;1017270;-68
2024/02/12 00:24:10;;;;;;;27.50;11.50;;;;;;;12.86;100.00;96836.73;67711;1279;1016517;-60
2024/02/12 00:27:13;;;;;;;27.50;11.10;;;;;;;12.87;100.00;96839.75;67775;1279;1016501;-62
2024/02/12 00:30:16;;;;;;;28.70;12.00;;;;;;;12.91;100.00;96844.63;67809;1279;1016453;-60
2024/02/12 00:33:19;;;;;;;29.80;12.20;;;;;;;12.87;100.00;96845.86;67713;1279;1016078;-69
2024/02/12 00:36:23;;;;;;;26.40;10.70;;;;;;;12.87;100.00;96847.81;67711;1279;1016302;-69
2024/02/12 00:39:26;;;;;;;25.70;9.40;;;;;;;12.89;100.00;96852.52;67770;1279;1016426;-69
2024/02/12 00:42:28;;;;;;;29.00;11.80;;;;;;;12.83;100.00;96853.31;67772;1279;1016107;-69
2024/02/12 00:45:31;;;;;;;24.00;8.40;;;;;;;12.85;100.00;96850.46;67762;1279;1018183;-69
2024/02/12 00:48:33;;;;;;;21.90;8.10;;;;;;;12.72;100.00;96850.25;67786;1279;1016407;-61
2024/02/12 00:51:37;;;;;;;24.30;8.40;;;;;;;12.68;100.00;96855.92;67785;1279;1016443;-61
2024/02/12 00:54:41;;;;;;;20.60;6.90;;;;;;;12.57;100.00;96853.55;67763;1279;1016422;-60
2024/02/12 00:57:44;;;;;;;20.80;7.20;;;;;;;12.61;100.00;96858.38;67750;1279;1016413;-61
2024/02/12 01:00:47;;;;;;;19.00;6.40;;;;;;;12.56;100.00;96861.95;67756;1279;1016053;-61
2024/02/12 01:03:50;;;;;;;18.50;6.40;;;;;;;12.58;100.00;96859.50;67730;1279;1016518;-68
2024/02/12 01:06:54;;;;;;;;;;;;;;;12.64;100.00;96861.88;67770;1279;1016978;-67
2024/02/12 01:09:57;;;;;;;20.40;6.30;;;;;;;12.61;100.00;96867.48;67706;1279;1016479;-68
2024/02/12 01:13:00;;;;;;;20.40;7.20;;;;;;;12.58;100.00;96868.98;67765;1279;1016216;-69
2024/02/12 01:16:04;;;;;;;19.00;6.60;;;;;;;12.52;100.00;96866.92;67766;1279;1016404;-62
2024/02/12 01:19:07;;;;;;;20.70;6.90;;;;;;;12.52;100.00;96874.19;67704;1279;1016278;-69
2024/02/12 01:22:09;;;;;;;19.30;6.10;;;;;;;12.47;100.00;96874.98;67805;1279;1016470;-61
2024/02/12 01:25:12;;;;;;;19.90;6.70;;;;;;;12.50;100.00;96878.15;67794;1279;1016188;-69
2024/02/12 01:28:15;;;;;;;20.40;6.70;;;;;;;12.56;100.00;96877.41;67751;1279;1017308;-60
2024/02/12 01:31:18;;;;;;;20.40;6.70;;;;;;;12.49;100.00;96882.84;67766;1279;1016461;-68
2024/02/12 01:34:20;;;;;;;20.70;7.20;;;;;;;12.38;100.00;96887.45;67758;1279;1016469;-69
2024/02/12 01:37:25;;;;;;;20.50;6.90;;;;;;;12.39;100.00;96885.54;67751;1279;1017946;-64
2024/02/12 01:40:28;;;;;;;21.50;7.20;;;;;;;12.39;100.00;96890.00;67746;1279;1016491;-62
2024/02/12 01:43:31;;;;;;;19.50;7.30;;;;;;;12.33;100.00;96891.08;67773;1279;1016088;-68
2024/02/12 01:46:34;;;;;;;19.70;7.20;;;;;;;12.36;100.00;96896.42;67782;1279;1016378;-64
2024/02/12 01:49:36;;;;;;;;;;;;;;;12.43;100.00;96898.90;67736;1279;1016414;-68
2024/02/12 01:52:41;;;;;;;20.70;7.40;;;;;;;12.29;100.00;96901.13;67763;1279;1017810;-68
2024/02/12 01:55:45;;;;;;;21.00;7.30;;;;;;;12.21;100.00;96902.46;67780;1279;1016443;-61
2024/02/12 01:58:47;;;;;;;21.00;7.40;;;;;;;12.29;100.00;96905.89;67720;1279;1016436;-61
2024/02/12 02:01:52;;;;;;;21.70;8.00;;;;;;;12.30;100.00;96907.70;67793;1279;1016728;-68
2024/02/12 02:04:54;;;;;;;18.30;6.70;;;;;;;12.31;100.00;96907.88;67764;1279;1016507;-61
2024/02/12 02:07:58;;;;;;;21.00;7.10;;;;;;;12.43;100.00;96907.78;67699;1279;1016416;-68
2024/02/12 02:11:03;;;;;;;20.80;6.90;;;;;;;12.52;100.00;96907.81;67780;1279;1016333;-68
2024/02/12 02:14:05;;;;;;;18.30;6.70;;;;;;;12.35;100.00;96908.58;67751;1279;1017256;-61
2024/02/12 02:17:08;;;;;;;18.70;7.00;;;;;;;12.35;100.00;96909.13;67797;1279;1016449;-68
2024/02/12 02:20:12;;;;;;;;;;;;;;;12.25;100.00;96915.67;67776;1279;1016488;-68
2024/02/12 02:23:14;;;;;;;21.60;7.80;;;;;;;12.25;100.00;96919.59;67765;1279;1016252;-61
2024/02/12 02:26:17;;;;;;;23.00;8.10;;;;;;;12.14;100.00;96915.55;67774;1279;1016479;-68
2024/02/12 02:29:19;;;;;;;22.60;7.70;;;;;;;12.01;100.00;96916.47;67711;1279;1017384;-69
2024/02/12 02:32:22;;;;;;;;;;;;;;;11.99;100.00;96918.19;67804;1279;1016427;-68
2024/02/12 02:35:25;;;;;;;;;;;;;;;12.04;100.00;96919.79;67753;1279;1016806;-61
2024/02/12 02:38:27;;;;;;;21.00;8.00;;;;;;;12.08;100.00;96928.20;67731;1279;1016349;-60
2024/02/12 02:41:30;;;;;;;20.30;7.60;;;;;;;12.15;100.00;96929.46;67741;1279;1016201;-68
2024/02/12 02:44:33;;;;;;;;;;;;;;;12.11;100.00;96938.77;67810;1279;1016421;-69
2024/02/12 02:47:37;;;;;;;20.90;7.30;;;;;;;12.11;100.00;96941.20;67766;1279;1016220;-60
2024/02/12 02:50:39;;;;;;;20.70;7.60;;;;;;;12.03;100.00;96940.73;67804;1279;1016468;-68
2024/02/12 02:53:44;;;;;;;19.30;7.00;;;;;;;11.94;100.00;96938.63;67769;1279;1016045;-69
2024/02/12 02:56:46;;;;;;;21.90;6.70;;;;;;;12.02;100.00;96939.23;67765;1279;1016176;-65
2024/02/12 02:59:49;;;;;;;20.60;7.30;;;;;;;12.11;100.00;96941.46;67780;1279;1016749;-61
2024/02/12 03:02:53;;;;;;;;;;;;;;;12.01;100.00;96940.08;67722;1279;1016748;-69
2024/02/12 03:05:56;;;;;;;18.80;6.30;;;;;;;11.93;100.00;96943.99;67778;1279;1016121;-61
2024/02/12 03:08:58;;;;;;;21.30;6.70;;;;;;;11.91;100.00;96943.30;67721;1279;1016953;-69
2024/02/12 03:12:02;;;;;;;18.70;6.20;;;;;;;11.86;100.00;96940.69;67756;1279;1017067;-68
2024/02/12 03:15:05;;;;;;;;;;;;;;;11.85;100.00;96945.41;67747;1279;1016130;-66
2024/02/12 03:18:08;;;;;;;19.70;6.20;;;;;;;11.85;100.00;96947.33;67716;1279;1016084;-60
2024/02/12 03:21:11;;;;;;;18.00;6.20;;;;;;;11.75;100.00;96953.80;67778;1279;1018254;-68
2024/02/12 03:24:14;;;;;;;18.20;6.50;;;;;;;11.76;100.00;96958.73;67737;1279;1016478;-66
2024/02/12 03:27:17;;;;;;;19.50;6.40;;;;;;;11.71;100.00;96961.86;67740;1279;1016353;-68
2024/02/12 03:30:19;;;;;;;17.30;6.00;;;;;;;11.67;100.00;96965.70;67803;1279;1016141;-69
2024/02/12 03:33:22;;;;;;;18.10;5.70;;;;;;;11.57;100.00;96967.60;67720;1279;1016316;-60
2024/02/12 03:36:25;;;;;;;;;;;;;;;11.56;100.00;96975.36;67703;1279;1016223;-60
2024/02/12 03:39:29;;;;;;;18.30;6.30;;;;;;;11.54;100.00;96978.29;67779;1279;1016266;-68
2024/02/12 03:42:32;;;;;;;16.60;5.60;;;;;;;11.59;100.00;96982.04;67755;1279;1017886;-63
2024/02/12 03:45:34;;;;;;;17.40;5.70;;;;;;;11.66;100.00;96985.28;67747;1279;1015945;-66
2024/02/12 04:01:58;;;;;;;18.20;5.60;;;;;;;11.59;100.00;96997.48;67734;1279;1016385;-68
2024/02/12 04:05:01;;;;;;;18.00;5.90;;;;;;;11.47;100.00;97003.14;67719;1279;1016496;-68
2024/02/12 04:08:04;;;;;;;18.70;6.00;;;;;;;11.48;100.00;97007.45;67786;1279;1016504;-68
2024/02/12 04:11:08;;;;;;;17.80;6.40;;;;;;;11.53;100.00;97005.86;67672;1279;1015966;-61
2024/02/12 04:14:11;;;;;;;19.50;6.20;;;;;;;11.52;100.00;97004.09;67739;1279;1016259;-61
2024/02/12 04:17:15;;;;;;;20.30;6.70;;;;;;;11.59;100.00;97008.49;67745;1279;1016148;-69
2024/02/12 04:20:18;;;;;;;18.50;5.80;;;;;;;11.69;100.00;97007.56;67774;1279;1016114;-68
2024/02/12 04:23:22;;;;;;;;;;;;;;;11.65;100.00;97006.37;67765;1279;1016527;-68
2024/02/12 04:26:25;;;;;;;16.00;5.40;;;;;;;11.62;100.00;97007.54;67745;1279;1016481;-67
2024/02/12 04:29:28;;;;;;;13.00;4.70;;;;;;;11.57;100.00;97008.83;67727;1279;1016094;-68
2024/02/12 04:32:31;;;;;;;14.90;5.30;;;;;;;11.52;100.00;97010.79;67719;1279;1016387;-69
2024/02/12 04:35:35;;;;;;;14.90;5.30;;;;;;;11.58;100.00;97010.01;67781;1279;1016467;-69
2024/02/12 04:38:37;;;;;;;17.30;5.40;;;;;;;11.61;100.00;97012.29;67701;1279;1016109;-68
2024/02/12 04:41:41;;;;;;;18.50;5.50;;;;;;;11.70;100.00;97017.29;67667;1279;1016288;-61
2024/02/12 04:44:43;;;;;;;16.50;5.10;;;;;;;11.65;100.00;97016.48;67684;1279;1015964;-69
2024/02/12 04:47:47;;;;;;;17.20;5.40;;;;;;;11.60;100.00;97019.08;67693;1279;1016457;-60
2024/02/12 04:50:49;;;;;;;16.20;5.30;;;;;;;11.52;100.00;97018.40;67695;1279;1016532;-68
2024/02/12 04:53:53;;;;;;;19.60;5.70;;;;;;;11.39;100.00;97017.01;67751;1279;1016214;-67
2024/02/12 04:56:56;;;;;;;15.80;5.50;;;;;;;11.36;100.00;97016.25;67740;1279;1016406;-68
2024/02/12 04:59:59;;;;;;;15.90;5.00;;;;;;;11.30;100.00;97024.70;67799;1279;1016343;-69
2024/02/12 05:03:01;;;;;;;16.10;5.20;;;;;;;11.28;100.00;97027.29;67768;1279;1017777;-69
2024/02/12 05:06:04;;;;;;;15.70;5.30;;;;;;;11.34;100.00;97027.77;67757;1279;1017445;-68
2024/02/12 05:09:09;;;;;;;;;;;;;;;11.38;100.00;97029.73;67807;1279;1016334;-62
2024/02/12 05:12:15;;;;;;;19.70;7.10;;;;;;;11.34;100.00;97030.42;67778;1279;1016401;-69
2024/02/12 05:15:18;;;;;;;21.00;7.10;;;;;;;11.37;100.00;97032.23;67667;1279;1016023;-62
2024/02/12 05:24:58;;;;;;;20.80;7.00;;;;;;;11.47;100.00;97037.25;67726;1279;1016384;-61
2024/02/12 05:28:02;;;;;;;18.60;6.30;;;;;;;11.47;100.00;97040.43;67755;1279;1016683;-68
2024/02/12 05:31:05;;;;;;;18.60;5.50;;;;;;;11.35;100.00;97043.46;67766;1279;1016106;-68
2024/02/12 05:34:08;;;;;;;;;;;;;;;11.32;100.00;97046.94;67810;1279;1016475;-61
2024/02/12 05:37:12;;;;;;;18.20;6.20;;;;;;;11.38;100.00;97051.40;67732;1279;1016484;-68
2024/02/12 05:40:15;;;;;;;15.90;5.60;;;;;;;11.35;100.00;97052.73;67774;1279;1016252;-68
2024/02/12 05:43:18;;;;;;;18.00;5.40;;;;;;;11.28;100.00;97051.08;67772;1279;1016525;-68
2024/02/12 05:46:20;;;;;;;18.00;6.00;;;;;;;11.23;100.00;97053.30;67769;1279;1016286;-68
2024/02/12 05:49:25;;;;;;;;;;;;;;;11.25;100.00;97055.40;67766;1279;1015972;-60
2024/02/12 05:52:28;;;;;;;20.00;6.60;;;;;;;11.20;100.00;97059.52;67762;1279;1016381;-60
2024/02/12 05:55:31;;;;;;;;;;;;;;;11.20;100.00;97058.60;67712;1279;1016545;-60
2024/02/12 05:58:34;;;;;;;;;;;;;;;11.15;100.00;97063.47;67785;1279;1016582;-68
2024/02/12 06:01:37;;;;;;;32.20;9.60;;;;;;;11.12;100.00;97062.18;67774;1279;1018093;-60
2024/02/12 06:04:40;;;;;;;30.00;9.50;;;;;;;11.03;100.00;97071.91;67754;1279;1016356;-68
2024/02/12 06:07:43;;;;;;;28.50;8.20;;;;;;;10.99;100.00;97076.09;67720;1279;1016484;-68
2024/02/12 06:10:46;;;;;;;;;;;;;;;10.98;100.00;97080.59;67641;1279;1016169;-68
2024/02/12 06:13:49;;;;;;;27.70;8.10;;;;;;;10.99;100.00;97080.66;67680;1279;1016739;-66
2024/02/12 06:16:51;;;;;;;44.90;15.20;;;;;;;10.99;100.00;97084.89;67812;1279;1016208;-68
2024/02/12 06:19:55;;;;;;;52.40;16.60;;;;;;;11.06;100.00;97084.71;67782;1279;1016143;-68
2024/02/12 06:22:58;;;;;;;42.70;12.90;;;;;;;11.19;100.00;97087.92;67713;1279;1016413;-68
2024/02/12 06:26:01;;;;;;;;;;;;;;;11.24;100.00;97090.64;67762;1279;1016373;-68
2024/02/12 06:29:04;;;;;;;40.00;14.30;;;;;;;11.19;100.00;97093.17;67785;1279;1016430;-68
2024/02/12 06:32:13;;;;;;;42.40;13.20;;;;;;;11.13;100.00;97097.98;67731;1279;1018833;-67
2024/02/12 06:35:16;;;;;;;32.00;10.70;;;;;;;11.15;100.00;97101.23;67772;1279;1016404;-65
2024/02/12 06:38:20;;;;;;;28.50;9.40;;;;;;;11.15;100.00;97107.56;67811;1279;1016284;-69
2024/02/12 06:41:24;;;;;;;;;;;;;;;11.18;100.00;97105.84;67744;1279;1016429;-69
2024/02/12 06:44:29;;;;;;;29.80;9.00;;;;;;;11.17;100.00;97108.46;67741;1279;1016452;-65
2024/02/12 06:47:32;;;;;;;25.10;7.00;;;;;;;11.22;100.00;97113.41;67767;1279;1016442;-60
2024/02/12 06:50:35;;;;;;;;;;;;;;;11.26;100.00;97110.92;67740;1279;1016211;-65
2024/02/12 06:53:37;;;;;;;38.90;13.00;;;;;;;11.23;100.00;97115.00;67745;1279;1016565;-60
2024/02/12 06:56:40;;;;;;;26.30;8.60;;;;;;;11.31;100.00;97117.52;67753;1279;1017301;-60
2024/02/12 06:59:44;;;;;;;27.70;8.40;;;;;;;11.28;100.00;97118.94;67733;1279;1016483;-68
2024/02/12 07:02:46;;;;;;;24.90;9.30;;;;;;;11.36;100.00;97122.07;67791;1279;1016426;-68
2024/02/12 07:05:49;;;;;;;25.60;8.30;;;;;;;11.34;100.00;97123.98;67689;1279;1016303;-68
2024/02/12 07:08:52;;;;;;;21.00;6.70;;;;;;;11.32;100.00;97126.52;67723;1279;1018708;-68
2024/02/12 07:11:54;;;;;;;20.70;6.10;;;;;;;11.29;100.00;97127.64;67802;1279;1016258;-68
2024/02/12 07:14:57;;;;;;;21.40;6.30;;;;;;;11.31;100.00;97131.50;67727;1279;1016399;-64
2024/02/12 07:17:59;;;;;;;21.90;6.30;;;;;;;11.39;100.00;97134.79;67736;1279;1018265;-68
2024/02/12 07:21:02;;;;;;;;;;;;;;;11.41;100.00;97137.20;67748;1279;1016453;-60
2024/02/12 07:24:06;;;;;;;19.40;5.90;;;;;;;11.40;100.00;97136.77;67715;1279;1016389;-68
2024/02/12 07:27:08;;;;;;;20.40;6.30;;;;;;;11.43;100.00;97135.93;67766;1279;1016149;-62
2024/02/12 07:30:11;;;;;;;;;;;;;;;11.56;100.00;97134.64;67777;1279;1016333;-60
2024/02/12 07:33:14;;;;;;;18.00;5.60;;;;;;;11.65;100.00;97134.38;67757;1279;1016135;-68
2024/02/12 07:36:17;;;;;;;19.10;6.10;;;;;;;11.75;100.00;97136.90;67788;1279;1016408;-68
2024/02/12 07:39:19;;;;;;;;;;;;;;;11.85;99.41;97141.41;67771;1279;1016447;-60
2024/02/12 07:42:22;;;;;;;20.30;5.20;;;;;;;11.95;98.99;97142.80;67698;1279;1016397;-60
2024/02/12 07:45:27;;;;;;;;;;;;;;;11.93;97.84;97147.33;67732;1279;1016056;-68
2024/02/12 07:48:30;;;;;;;20.90;6.20;;;;;;;11.96;98.54;97150.08;67755;1279;1016249;-61
2024/02/12 07:51:32;;;;;;;21.00;6.70;;;;;;;12.10;96.85;97155.23;67763;1279;1016441;-68
2024/02/12 07:54:38;;;;;;;;;;;;;;;12.21;95.86;97155.09;67771;1279;1018113;-67
2024/02/12 07:57:40;;;;;;;20.60;6.10;;;;;;;12.23;95.29;97156.33;67734;1279;1016519;-67
2024/02/12 08:00:43;;;;;;;18.50;5.20;;;;;;;12.15;94.83;97160.10;65251;1279;5365694;-68
2024/02/12 08:03:54;;;;;;;21.90;5.80;;;;;;;12.07;95.25;97167.94;67569;1279;1016491;-68
2024/02/12 08:06:57;;;;;;;18.00;5.00;;;;;;;12.16;93.63;97170.45;67809;1279;1016407;-68
2024/02/12 08:10:00;;;;;;;17.30;4.90;;;;;;;12.28;92.49;97174.79;67793;1279;1016172;-67
2024/02/12 08:13:04;;;;;;;18.00;5.50;;;;;;;12.35;91.51;97179.20;67766;1279;1016467;-68
2024/02/12 08:16:06;;;;;;;18.50;5.70;;;;;;;12.35;92.25;97184.30;67693;1279;1015940;-68
2024/02/12 08:19:09;;;;;;;18.90;5.60;;;;;;;12.26;93.27;97188.81;67800;1279;1016442;-66
2024/02/12 08:22:12;;;;;;;22.40;8.20;;;;;;;12.22;92.88;97189.53;67795;1279;1016473;-68
2024/02/12 08:25:15;;;;;;;21.60;7.90;;;;;;;12.20;92.67;97192.38;67713;1279;1016461;-68
2024/02/12 08:28:17;;;;;;;20.70;6.70;;;;;;;12.20;93.44;97193.44;67753;1279;1016402;-68
2024/02/12 08:31:20;;;;;;;18.70;6.00;;;;;;;12.23;93.08;97195.89;67788;1279;1016429;-68
2024/02/12 08:34:22;;;;;;;19.70;6.10;;;;;;;12.16;94.45;97199.52;67758;1279;1016226;-68
2024/02/12 08:37:25;;;;;;;19.80;6.10;;;;;;;12.21;93.92;97197.67;67741;1279;1016437;-68
2024/02/12 08:40:30;;;;;;;;;;;;;;;12.27;93.20;97204.79;67827;1279;1018820;-68
2024/02/12 08:43:33;;;;;;;22.50;6.30;;;;;;;12.33;92.86;97204.43;67716;1279;1016491;-63
2024/02/12 08:46:35;;;;;;;21.00;6.00;;;;;;;12.54;91.72;97210.35;67796;1279;1016503;-64
2024/02/12 08:49:38;;;;;;;20.50;5.90;;;;;;;12.59;90.39;97214.59;67799;1279;1016822;-60
2024/02/12 08:52:40;;;;;;;22.80;6.90;;;;;;;12.68;90.63;97216.38;67773;1279;1016420;-61
2024/02/12 08:55:43;;;;;;;;;;;;;;;12.90;90.58;97219.39;67768;1279;1016486;-68
2024/02/12 08:58:46;;;;;;;19.70;5.80;;;;;;;12.98;88.44;97220.76;67825;1279;1016082;-68
2024/02/12 09:01:49;;;;;;;21.60;7.10;;;;;;;12.85;90.15;97227.75;67785;1279;1016187;-68
2024/02/12 09:04:52;;;;;;;19.70;5.30;;;;;;;12.96;89.42;97232.81;67821;1279;1016285;-68
2024/02/12 09:07:54;;;;;;;20.50;5.70;;;;;;;12.94;87.50;97234.44;67748;1279;1016515;-68
2024/02/12 09:10:57;;;;;;;19.20;5.50;;;;;;;13.00;89.25;97237.00;67752;1279;1016472;-68
2024/02/12 09:14:00;;;;;;;19.30;5.80;;;;;;;13.06;87.90;97237.48;67828;1279;1016407;-64
2024/02/12 09:17:25;;;;;;;21.30;6.40;;;;;;;13.09;86.94;97242.85;67681;1279;1016470;-68
2024/02/12 09:20:28;;;;;;;19.40;5.40;;;;;;;13.06;86.11;97248.61;67797;1279;1016447;-68
2024/02/12 09:23:30;;;;;;;;;;;;;;;13.14;87.41;97253.07;67737;1279;1016446;-68
2024/02/12 09:26:33;;;;;;;15.90;4.30;;;;;;;13.24;85.46;97258.12;67745;1279;1016827;-68
2024/02/12 09:29:35;;;;;;;;;;;;;;;13.33;86.39;97256.67;67764;1279;1016576;-67
2024/02/12 09:32:38;;;;;;;17.90;4.30;;;;;;;13.44;86.32;97259.14;67821;1279;1016464;-67
2024/02/12 09:35:41;;;;;;;14.10;4.00;;;;;;;13.38;82.67;97261.89;67727;1279;1016876;-68
2024/02/12 09:38:45;;;;;;;14.40;4.10;;;;;;;13.29;81.27;97265.53;67677;1279;1016521;-68
2024/02/12 09:41:49;;;;;;;12.20;3.30;;;;;;;13.15;81.82;97266.12;67739;1279;1016226;-68
2024/02/12 09:44:51;;;;;;;;;;;;;;;13.16;81.92;97269.73;67757;1279;1016450;-67
2024/02/12 09:47:54;;;;;;;16.90;3.80;;;;;;;13.27;80.72;97269.34;67799;1279;1015738;-68
2024/02/12 09:50:56;;;;;;;;;;;;;;;13.24;79.99;97273.35;67769;1279;1016756;-68
2024/02/12 09:54:01;;;;;;;23.30;6.10;;;;;;;13.17;80.88;97271.70;67714;1279;1016463;-65
2024/02/12 09:57:04;;;;;;;20.70;5.90;;;;;;;13.34;81.03;97267.15;67791;1279;1016402;-68
2024/02/12 10:00:07;;;;;;;17.90;5.40;;;;;;;13.49;78.38;97270.64;67790;1279;1019360;-68
2024/02/12 10:03:11;;;;;;;14.90;4.30;;;;;;;13.46;76.82;97274.79;67754;1279;1018868;-68
2024/02/12 10:06:14;;;;;;;17.50;4.30;;;;;;;13.45;78.87;97267.73;67791;1279;1016450;-68
2024/02/12 10:09:17;;;;;;;13.30;3.40;;;;;;;13.53;77.60;97273.41;67786;1279;1016371;-68
2024/02/12 10:12:19;;;;;;;;;;;;;;;13.63;77.11;97276.33;67753;1279;1019120;-67
2024/02/12 10:15:23;;;;;;;13.90;3.40;;;;;;;13.58;77.02;97280.60;67783;1279;1020313;-66
2024/02/12 10:18:26;;;;;;;17.50;4.30;;;;;;;13.46;75.33;97277.90;67747;1279;1016165;-68
2024/02/12 10:21:29;;;;;;;14.60;3.80;;;;;;;13.54;76.65;97282.41;67797;1279;1016249;-68
2024/02/12 10:24:32;;;;;;;15.80;3.40;;;;;;;13.65;76.42;97281.20;67799;1256;1018657;-68
2024/02/12 10:27:35;;;;;;;18.40;4.10;;;;;;;13.67;74.65;97283.25;67771;1279;1019020;-68
2024/02/12 10:30:37;;;;;;;;;;;;;;;13.75;74.05;97284.23;67762;1279;1016395;-64
2024/02/12 10:33:40;;;;;;;20.80;5.10;;;;;;;13.73;72.34;97285.57;67712;1279;1019925;-65
2024/02/12 10:36:42;;;;;;;17.10;4.20;;;;;;;13.76;74.24;97281.49;67801;1279;1016441;-68
2024/02/12 10:39:45;;;;;;;22.10;7.40;;;;;;;13.88;71.63;97285.81;67786;1279;1016442;-68
2024/02/12 10:42:49;;;;;;;14.20;3.90;;;;;;;13.88;71.10;97282.77;67759;1279;1016235;-68
2024/02/12 10:45:53;;;;;;;17.90;4.50;;;;;;;13.99;70.62;97283.32;67801;1279;1016174;-68
2024/02/12 10:48:56;;;;;;;10.20;2.90;;;;;;;14.15;69.70;97289.41;67741;1279;1016257;-68
2024/02/12 10:51:59;;;;;;;;;;;;;;;14.14;67.72;97291.84;67773;1279;1016870;-68
2024/02/12 10:55:03;;;;;;;12.20;3.20;;;;;;;14.16;67.19;97285.96;67745;1279;1016908;-67
2024/02/12 10:58:05;;;;;;;12.60;3.00;;;;;;;14.24;67.48;97285.95;67737;1279;1016242;-68
2024/02/12 11:01:08;;;;;;;13.40;2.70;;;;;;;14.10;65.29;97298.03;67798;1279;1016371;-68
2024/02/12 11:04:10;;;;;;;10.50;2.50;;;;;;;14.09;67.86;97298.01;67770;1279;1016170;-65
2024/02/12 11:07:13;;;;;;;;;;;;;;;14.10;68.02;97296.04;67760;1279;1016336;-68
2024/02/12 11:10:16;;;;;;;11.80;2.90;;;;;;;14.32;68.94;97301.33;67752;1279;1016871;-68
2024/02/12 11:13:19;;;;;;;;;;;;;;;14.52;65.18;97299.45;67773;1279;1016492;-68
2024/02/12 11:16:22;;;;;;;9.10;2.70;;;;;;;14.58;64.14;97309.42;67739;1279;1018669;-68
2024/02/12 11:19:25;;;;;;;8.00;2.40;;;;;;;14.42;62.35;97313.16;67797;1279;1017637;-68
2024/02/12 11:22:28;;;;;;;11.60;2.70;;;;;;;14.44;64.17;97303.23;67715;1279;1016326;-68
2024/02/12 11:25:30;;;;;;;11.90;2.60;;;;;;;14.56;63.71;97306.96;67726;1279;1019452;-67
2024/02/12 11:28:33;;;;;;;9.20;2.60;;;;;;;14.48;63.09;97305.98;67809;1279;1019000;-67
2024/02/12 11:31:35;;;;;;;11.30;2.50;;;;;;;14.44;63.74;97306.58;67798;1279;1016011;-68
2024/02/12 11:34:38;;;;;;;16.00;4.20;;;;;;;14.47;63.09;97304.33;67774;1279;1016402;-68
2024/02/12 11:37:41;;;;;;;24.00;7.30;;;;;;;14.59;63.82;97297.92;67747;1279;1016521;-62
2024/02/12 11:40:44;;;;;;;18.40;4.00;;;;;;;14.60;62.78;97299.54;67768;1269;1016419;-66
2024/02/12 11:43:47;;;;;;;13.30;3.40;;;;;;;14.55;62.50;97299.67;67762;1279;1016446;-65
2024/02/12 11:46:51;;;;;;;;;;;;;;;14.60;62.11;97293.75;67796;1279;1016461;-67
2024/02/12 11:49:54;;;;;;;20.00;4.10;;;;;;;14.60;61.32;97301.70;67796;1279;1016452;-68
2024/02/12 11:52:57;;;;;;;18.30;4.40;;;;;;;14.52;61.48;97304.91;67773;1279;1016478;-68
2024/02/12 11:56:00;;;;;;;16.10;4.00;;;;;;;14.40;60.81;97306.98;67785;1279;1016457;-68
2024/02/12 11:59:04;;;;;;;20.20;4.90;;;;;;;14.44;62.30;97304.31;67763;1279;1016471;-68
2024/02/12 12:02:06;;;;;;;13.30;3.80;;;;;;;14.52;62.22;97304.89;67787;1279;1016402;-68
2024/02/12 12:05:09;;;;;;;12.00;3.00;;;;;;;14.36;62.11;97308.98;67739;1279;1016535;-68
2024/02/12 12:08:12;;;;;;;11.30;3.20;;;;;;;14.34;61.82;97312.32;67724;1279;1016741;-63
2024/02/12 12:11:15;;;;;;;11.80;3.10;;;;;;;14.46;62.38;97316.97;67757;1279;1016357;-68
2024/02/12 12:14:20;;;;;;;7.10;2.60;;;;;;;14.47;62.82;97319.30;67753;1279;1016824;-68
2024/02/12 12:17:23;;;;;;;11.50;3.20;;;;;;;14.62;61.78;97310.84;67764;1279;1016374;-68
2024/02/12 12:20:29;;;;;;;13.60;3.20;;;;;;;14.89;62.28;97312.77;67767;1279;1016462;-68
2024/02/12 12:23:31;;;;;;;14.40;3.60;;;;;;;14.92;61.32;97306.34;67746;1279;1016225;-66
2024/02/12 12:26:35;;;;;;;12.70;3.30;;;;;;;14.79;60.80;97321.04;67782;1279;1015756;-67
2024/02/12 12:29:38;;;;;;;12.40;3.00;;;;;;;14.90;62.09;97305.14;67800;1279;1016482;-68
2024/02/12 12:32:41;;;;;;;12.40;3.50;;;;;;;15.16;60.42;97312.45;67702;1279;1016447;-68
2024/02/12 12:35:44;;;;;;;17.80;3.70;;;;;;;14.92;60.63;97317.11;67753;1279;1016725;-68
2024/02/12 12:38:46;;;;;;;16.60;3.90;;;;;;;14.82;60.35;97319.96;67732;1279;1016126;-68
2024/02/12 12:41:50;;;;;;;;;;;;;;;14.89;61.31;97317.66;67755;1279;1016165;-68
2024/02/12 12:44:52;;;;;;;15.00;3.60;;;;;;;14.90;60.82;97326.24;67788;1279;1016241;-68
2024/02/12 12:47:55;;;;;;;16.60;4.10;;;;;;;15.01;60.62;97330.70;67746;1279;1015947;-68
2024/02/12 12:50:58;;;;;;;;;;;;;;;15.19;60.99;97327.29;67719;1279;1016239;-65
2024/02/12 12:54:00;;;;;;;17.50;4.30;;;;;;;15.24;60.19;97322.19;67771;1279;1016422;-68
2024/02/12 12:57:03;;;;;;;;;;;;;;;15.47;60.47;97318.39;67778;1279;1015990;-66
2024/02/12 13:00:06;;;;;;;16.50;3.70;;;;;;;15.52;58.37;97330.10;67740;1279;1016988;-68
2024/02/12 13:03:11;;;;;;;15.70;3.60;;;;;;;15.30;58.98;97330.40;67761;1279;1016628;-64
2024/02/12 13:06:14;;;;;;;15.80;3.80;;;;;;;15.01;59.81;97342.17;67750;1279;1016288;-68
2024/02/12 13:09:18;;;;;;;12.30;3.20;;;;;;;14.81;59.72;97347.73;67801;1279;1016615;-68
2024/02/12 13:12:21;;;;;;;13.80;3.10;;;;;;;14.46;60.93;97351.83;67792;1279;1016462;-68
2024/02/12 13:15:25;;;;;;;15.90;3.70;;;;;;;14.46;61.87;97350.34;67761;1279;1016483;-68
2024/02/12 13:18:29;;;;;;;11.50;3.40;;;;;;;14.41;61.40;97349.49;67762;1279;1016506;-68
2024/02/12 13:21:38;;;;;;;14.30;3.60;;;;;;;14.46;61.57;97351.61;67726;1279;1016600;-65
2024/02/12 13:24:43;;;;;;;11.50;2.90;;;;;;;14.62;63.33;97350.31;67757;1279;1016929;-67
2024/02/12 13:27:46;;;;;;;13.10;3.20;;;;;;;15.01;61.36;97356.59;67732;1279;1016357;-68
2024/02/12 13:30:48;;;;;;;12.80;3.40;;;;;;;15.28;59.76;97352.09;67747;1279;1016308;-65
2024/02/12 13:33:53;;;;;;;13.40;3.60;;;;;;;15.33;59.32;97356.56;67784;1279;1016445;-65
2024/02/12 13:36:56;;;;;;;13.10;3.50;;;;;;;15.25;58.97;97354.38;67756;1279;1018949;-68
2024/02/12 13:39:58;;;;;;;14.90;3.40;;;;;;;15.04;58.54;97365.81;67774;1279;1016707;-68
2024/02/12 13:43:03;;;;;;;11.90;3.10;;;;;;;14.51;59.21;97371.79;67786;1279;1016805;-68
2024/02/12 13:46:07;;;;;;;11.50;3.30;;;;;;;14.30;60.07;97375.02;67797;1279;1016465;-68
2024/02/12 13:49:25;;;;;;;11.70;3.10;;;;;;;14.16;61.96;97369.54;67785;1279;1016532;-67
2024/02/12 13:52:28;;;;;;;10.50;2.80;;;;;;;14.12;61.90;97378.43;67784;1279;1016487;-66
2024/02/12 13:55:30;;;;;;;12.50;3.10;;;;;;;14.02;62.25;97378.41;67757;1279;1016477;-69
2024/02/12 13:58:33;;;;;;;15.80;4.10;;;;;;;13.93;63.51;97380.67;67750;1279;1016650;-68
2024/02/12 14:01:36;;;;;;;17.40;4.50;;;;;;;13.93;63.94;97380.73;67735;1279;1016526;-65
2024/02/12 14:04:38;;;;;;;13.70;4.00;;;;;;;13.95;63.69;97385.11;67769;1279;1016513;-67
2024/02/12 14:07:41;;;;;;;;;;;;;;;13.99;63.52;97389.45;67749;1279;1016241;-69
2024/02/12 14:10:43;;;;;;;17.80;4.50;;;;;;;13.98;63.52;97393.89;67728;1279;1016510;-66
2024/02/12 14:13:46;;;;;;;17.40;4.10;;;;;;;13.85;63.69;97397.44;67737;1279;1016065;-68
2024/02/12 14:16:48;;;;;;;;;;;;;;;13.79;63.62;97405.27;67760;1279;1016625;-68
2024/02/12 14:19:51;;;;;;;14.60;4.00;;;;;;;13.74;64.62;97407.15;67754;1279;1018009;-65